sensor_id;sensor_type;location;lat;lon;timestamp;P1;durP1;ratioP1;P2;durP2;ratioP2
56051;SDS011;41919;42.648;23.384;2023-08-24T00:01:15;11.80;;;7.88;;
56051;SDS011;41919;42.648;23.384;2023-08-24T00:03:43;8.82;;;7.35;;
56051;SDS011;41919;42.648;23.384;2023-08-24T00:06:09;9.38;;;7.60;;
56051;SDS011;41919;42.648;23.384;2023-08-24T00:08:35;8.30;;;7.50;;
56051;SDS011;41919;42.648;23.384;2023-08-24T00:11:01;10.02;;;7.65;;
56051;SDS011;41919;42.648;23.384;2023-08-24T00:13:27;8.27;;;7.30;;
56051;SDS011;41919;42.648;23.384;2023-08-24T00:15:53;8.43;;;7.10;;
56051;SDS011;41919;42.648;23.384;2023-08-24T00:18:19;8.60;;;7.55;;
56051;SDS011;41919;42.648;23.384;2023-08-24T00:20:47;8.05;;;7.25;;
56051;SDS011;41919;42.648;23.384;2023-08-24T00:23:12;9.43;;;7.72;;
56051;SDS011;41919;42.648;23.384;2023-08-24T00:25:38;9.90;;;7.90;;
56051;SDS011;41919;42.648;23.384;2023-08-24T00:28:06;9.38;;;7.88;;
56051;SDS011;41919;42.648;23.384;2023-08-24T00:30:31;8.52;;;6.72;;
56051;SDS011;41919;42.648;23.384;2023-08-24T00:32:56;8.85;;;7.40;;
56051;SDS011;41919;42.648;23.384;2023-08-24T00:35:22;8.82;;;7.28;;
56051;SDS011;41919;42.648;23.384;2023-08-24T00:37:47;8.73;;;7.28;;
56051;SDS011;41919;42.648;23.384;2023-08-24T00:40:12;9.65;;;7.78;;
56051;SDS011;41919;42.648;23.384;2023-08-24T00:42:42;8.23;;;7.38;;
56051;SDS011;41919;42.648;23.384;2023-08-24T00:45:09;8.98;;;7.40;;
56051;SDS011;41919;42.648;23.384;2023-08-24T00:47:42;9.27;;;7.60;;
56051;SDS011;41919;42.648;23.384;2023-08-24T00:50:10;8.88;;;7.50;;
56051;SDS011;41919;42.648;23.384;2023-08-24T00:52:37;8.27;;;7.47;;
56051;SDS011;41919;42.648;23.384;2023-08-24T00:55:05;8.05;;;7.25;;
56051;SDS011;41919;42.648;23.384;2023-08-24T00:57:32;8.45;;;7.55;;
56051;SDS011;41919;42.648;23.384;2023-08-24T00:59:59;10.05;;;7.78;;
56051;SDS011;41919;42.648;23.384;2023-08-24T01:02:26;8.75;;;7.53;;
56051;SDS011;41919;42.648;23.384;2023-08-24T01:04:52;9.25;;;7.57;;
56051;SDS011;41919;42.648;23.384;2023-08-24T01:07:18;9.60;;;8.57;;
56051;SDS011;41919;42.648;23.384;2023-08-24T01:09:43;9.27;;;7.93;;
56051;SDS011;41919;42.648;23.384;2023-08-24T01:17:42;9.13;;;7.40;;
56051;SDS011;41919;42.648;23.384;2023-08-24T01:20:08;9.13;;;7.45;;
56051;SDS011;41919;42.648;23.384;2023-08-24T01:25:51;9.88;;;7.53;;
56051;SDS011;41919;42.648;23.384;2023-08-24T01:28:18;10.68;;;8.40;;
56051;SDS011;41919;42.648;23.384;2023-08-24T01:30:46;9.95;;;8.90;;
56051;SDS011;41919;42.648;23.384;2023-08-24T01:33:11;10.07;;;8.25;;
56051;SDS011;41919;42.648;23.384;2023-08-24T01:35:38;11.52;;;8.15;;
56051;SDS011;41919;42.648;23.384;2023-08-24T01:38:04;11.00;;;8.45;;
56051;SDS011;41919;42.648;23.384;2023-08-24T01:43:34;11.27;;;8.80;;
56051;SDS011;41919;42.648;23.384;2023-08-24T01:46:02;10.75;;;8.50;;
56051;SDS011;41919;42.648;23.384;2023-08-24T01:48:29;11.68;;;8.93;;
56051;SDS011;41919;42.648;23.384;2023-08-24T01:50:57;9.20;;;7.32;;
56051;SDS011;41919;42.648;23.384;2023-08-24T01:53:23;10.70;;;8.27;;
56051;SDS011;41919;42.648;23.384;2023-08-24T01:55:50;9.65;;;8.07;;
56051;SDS011;41919;42.648;23.384;2023-08-24T01:58:15;10.13;;;7.88;;
56051;SDS011;41919;42.648;23.384;2023-08-24T02:00:41;16.30;;;8.05;;
56051;SDS011;41919;42.648;23.384;2023-08-24T02:03:06;9.38;;;7.65;;
56051;SDS011;41919;42.648;23.384;2023-08-24T02:05:32;11.63;;;8.27;;
56051;SDS011;41919;42.648;23.384;2023-08-24T02:07:57;10.88;;;8.57;;
56051;SDS011;41919;42.648;23.384;2023-08-24T02:10:24;8.52;;;7.38;;
56051;SDS011;41919;42.648;23.384;2023-08-24T02:12:50;10.43;;;7.70;;
56051;SDS011;41919;42.648;23.384;2023-08-24T02:15:16;10.70;;;8.02;;
56051;SDS011;41919;42.648;23.384;2023-08-24T02:17:42;9.93;;;8.40;;
56051;SDS011;41919;42.648;23.384;2023-08-24T02:20:07;11.18;;;8.10;;
56051;SDS011;41919;42.648;23.384;2023-08-24T02:22:36;10.40;;;8.15;;
56051;SDS011;41919;42.648;23.384;2023-08-24T02:25:02;9.63;;;8.02;;
56051;SDS011;41919;42.648;23.384;2023-08-24T02:27:30;12.45;;;7.82;;
56051;SDS011;41919;42.648;23.384;2023-08-24T02:29:55;9.43;;;8.00;;
56051;SDS011;41919;42.648;23.384;2023-08-24T02:32:21;14.30;;;8.07;;
56051;SDS011;41919;42.648;23.384;2023-08-24T02:34:46;8.80;;;7.70;;
56051;SDS011;41919;42.648;23.384;2023-08-24T02:37:11;9.27;;;8.27;;
56051;SDS011;41919;42.648;23.384;2023-08-24T02:39:37;10.85;;;8.07;;
56051;SDS011;41919;42.648;23.384;2023-08-24T02:42:02;10.85;;;8.35;;
56051;SDS011;41919;42.648;23.384;2023-08-24T02:44:27;9.93;;;8.15;;
56051;SDS011;41919;42.648;23.384;2023-08-24T02:46:53;11.10;;;7.97;;
56051;SDS011;41919;42.648;23.384;2023-08-24T02:49:19;9.55;;;7.93;;
56051;SDS011;41919;42.648;23.384;2023-08-24T02:51:44;10.65;;;7.55;;
56051;SDS011;41919;42.648;23.384;2023-08-24T02:54:09;9.05;;;8.00;;
56051;SDS011;41919;42.648;23.384;2023-08-24T02:56:35;9.98;;;8.27;;
56051;SDS011;41919;42.648;23.384;2023-08-24T02:59:00;9.07;;;7.93;;
56051;SDS011;41919;42.648;23.384;2023-08-24T03:01:25;17.20;;;8.20;;
56051;SDS011;41919;42.648;23.384;2023-08-24T03:03:51;9.35;;;8.13;;
56051;SDS011;41919;42.648;23.384;2023-08-24T03:06:17;9.15;;;7.95;;
56051;SDS011;41919;42.648;23.384;2023-08-24T03:08:42;10.35;;;8.10;;
56051;SDS011;41919;42.648;23.384;2023-08-24T03:11:07;9.32;;;7.85;;
56051;SDS011;41919;42.648;23.384;2023-08-24T03:13:35;10.50;;;8.90;;
56051;SDS011;41919;42.648;23.384;2023-08-24T03:16:05;11.15;;;7.88;;
56051;SDS011;41919;42.648;23.384;2023-08-24T03:18:30;12.45;;;8.77;;
56051;SDS011;41919;42.648;23.384;2023-08-24T03:20:56;13.35;;;7.97;;
56051;SDS011;41919;42.648;23.384;2023-08-24T03:23:22;13.30;;;8.65;;
56051;SDS011;41919;42.648;23.384;2023-08-24T03:25:47;9.38;;;8.00;;
56051;SDS011;41919;42.648;23.384;2023-08-24T03:28:12;9.98;;;8.07;;
56051;SDS011;41919;42.648;23.384;2023-08-24T03:30:39;9.40;;;8.00;;
56051;SDS011;41919;42.648;23.384;2023-08-24T03:33:12;11.45;;;7.72;;
56051;SDS011;41919;42.648;23.384;2023-08-24T03:35:37;9.27;;;8.32;;
56051;SDS011;41919;42.648;23.384;2023-08-24T03:38:02;10.80;;;9.20;;
56051;SDS011;41919;42.648;23.384;2023-08-24T03:40:29;10.82;;;8.52;;
56051;SDS011;41919;42.648;23.384;2023-08-24T03:42:54;8.77;;;7.88;;
56051;SDS011;41919;42.648;23.384;2023-08-24T03:45:20;10.77;;;8.30;;
56051;SDS011;41919;42.648;23.384;2023-08-24T03:47:46;9.27;;;8.20;;
56051;SDS011;41919;42.648;23.384;2023-08-24T03:50:11;9.93;;;7.40;;
56051;SDS011;41919;42.648;23.384;2023-08-24T03:52:36;12.32;;;8.32;;
56051;SDS011;41919;42.648;23.384;2023-08-24T03:55:04;12.15;;;8.77;;
56051;SDS011;41919;42.648;23.384;2023-08-24T03:57:31;9.60;;;8.30;;
56051;SDS011;41919;42.648;23.384;2023-08-24T03:59:56;11.95;;;8.32;;
56051;SDS011;41919;42.648;23.384;2023-08-24T04:02:22;12.38;;;9.07;;
56051;SDS011;41919;42.648;23.384;2023-08-24T04:04:47;10.05;;;8.85;;
56051;SDS011;41919;42.648;23.384;2023-08-24T04:07:13;10.57;;;8.88;;
56051;SDS011;41919;42.648;23.384;2023-08-24T04:09:38;11.82;;;8.93;;
56051;SDS011;41919;42.648;23.384;2023-08-24T04:12:03;11.88;;;9.50;;
56051;SDS011;41919;42.648;23.384;2023-08-24T04:14:29;13.75;;;9.07;;
56051;SDS011;41919;42.648;23.384;2023-08-24T04:16:54;15.75;;;9.00;;
56051;SDS011;41919;42.648;23.384;2023-08-24T04:19:20;11.05;;;9.52;;
56051;SDS011;41919;42.648;23.384;2023-08-24T04:21:46;15.27;;;8.80;;
56051;SDS011;41919;42.648;23.384;2023-08-24T04:24:11;10.05;;;8.70;;
56051;SDS011;41919;42.648;23.384;2023-08-24T04:26:36;11.32;;;9.25;;
56051;SDS011;41919;42.648;23.384;2023-08-24T04:29:02;11.50;;;8.68;;
56051;SDS011;41919;42.648;23.384;2023-08-24T04:31:27;11.68;;;8.57;;
56051;SDS011;41919;42.648;23.384;2023-08-24T04:33:53;13.38;;;9.35;;
56051;SDS011;41919;42.648;23.384;2023-08-24T04:36:18;15.55;;;9.27;;
56051;SDS011;41919;42.648;23.384;2023-08-24T04:38:43;10.38;;;8.60;;
56051;SDS011;41919;42.648;23.384;2023-08-24T04:41:09;7.28;;;6.53;;
56051;SDS011;41919;42.648;23.384;2023-08-24T04:43:34;9.32;;;8.32;;
56051;SDS011;41919;42.648;23.384;2023-08-24T04:46:01;9.48;;;8.07;;
56051;SDS011;41919;42.648;23.384;2023-08-24T04:48:27;9.60;;;8.05;;
56051;SDS011;41919;42.648;23.384;2023-08-24T04:50:57;9.48;;;7.45;;
56051;SDS011;41919;42.648;23.384;2023-08-24T04:53:23;7.57;;;6.75;;
56051;SDS011;41919;42.648;23.384;2023-08-24T04:55:49;9.77;;;7.95;;
56051;SDS011;41919;42.648;23.384;2023-08-24T04:58:14;9.35;;;7.30;;
56051;SDS011;41919;42.648;23.384;2023-08-24T05:00:40;8.88;;;7.68;;
56051;SDS011;41919;42.648;23.384;2023-08-24T05:03:05;8.40;;;7.60;;
56051;SDS011;41919;42.648;23.384;2023-08-24T05:05:32;11.15;;;7.50;;
56051;SDS011;41919;42.648;23.384;2023-08-24T05:07:59;8.52;;;7.18;;
56051;SDS011;41919;42.648;23.384;2023-08-24T05:10:26;9.23;;;7.32;;
56051;SDS011;41919;42.648;23.384;2023-08-24T05:12:55;8.55;;;7.43;;
56051;SDS011;41919;42.648;23.384;2023-08-24T05:15:20;10.00;;;7.80;;
56051;SDS011;41919;42.648;23.384;2023-08-24T05:17:46;9.15;;;7.32;;
56051;SDS011;41919;42.648;23.384;2023-08-24T05:20:11;8.40;;;7.22;;
56051;SDS011;41919;42.648;23.384;2023-08-24T05:22:37;8.20;;;7.40;;
56051;SDS011;41919;42.648;23.384;2023-08-24T05:25:02;8.43;;;7.38;;
56051;SDS011;41919;42.648;23.384;2023-08-24T05:27:28;9.70;;;7.82;;
56051;SDS011;41919;42.648;23.384;2023-08-24T05:29:53;11.20;;;7.78;;
56051;SDS011;41919;42.648;23.384;2023-08-24T05:32:19;9.82;;;7.97;;
56051;SDS011;41919;42.648;23.384;2023-08-24T05:34:44;7.93;;;7.15;;
56051;SDS011;41919;42.648;23.384;2023-08-24T05:37:10;9.80;;;8.18;;
56051;SDS011;41919;42.648;23.384;2023-08-24T05:39:36;12.18;;;8.15;;
56051;SDS011;41919;42.648;23.384;2023-08-24T05:42:01;9.88;;;8.60;;
56051;SDS011;41919;42.648;23.384;2023-08-24T05:44:27;10.05;;;7.72;;
56051;SDS011;41919;42.648;23.384;2023-08-24T05:46:52;10.15;;;7.50;;
56051;SDS011;41919;42.648;23.384;2023-08-24T05:49:17;8.93;;;7.75;;
56051;SDS011;41919;42.648;23.384;2023-08-24T05:51:43;10.43;;;8.07;;
56051;SDS011;41919;42.648;23.384;2023-08-24T05:54:08;11.65;;;8.30;;
56051;SDS011;41919;42.648;23.384;2023-08-24T05:56:34;11.15;;;8.15;;
56051;SDS011;41919;42.648;23.384;2023-08-24T05:58:59;9.25;;;7.70;;
56051;SDS011;41919;42.648;23.384;2023-08-24T06:01:25;10.10;;;7.68;;
56051;SDS011;41919;42.648;23.384;2023-08-24T06:03:50;12.55;;;8.38;;
56051;SDS011;41919;42.648;23.384;2023-08-24T06:06:15;11.02;;;7.10;;
56051;SDS011;41919;42.648;23.384;2023-08-24T06:08:41;12.57;;;8.63;;
56051;SDS011;41919;42.648;23.384;2023-08-24T06:11:07;10.25;;;8.55;;
56051;SDS011;41919;42.648;23.384;2023-08-24T06:13:32;9.38;;;8.35;;
56051;SDS011;41919;42.648;23.384;2023-08-24T06:15:58;9.70;;;8.02;;
56051;SDS011;41919;42.648;23.384;2023-08-24T06:18:23;13.15;;;10.15;;
56051;SDS011;41919;42.648;23.384;2023-08-24T06:20:49;11.70;;;9.82;;
56051;SDS011;41919;42.648;23.384;2023-08-24T06:23:16;13.93;;;9.43;;
56051;SDS011;41919;42.648;23.384;2023-08-24T06:25:41;11.80;;;9.63;;
56051;SDS011;41919;42.648;23.384;2023-08-24T06:28:07;13.38;;;8.93;;
56051;SDS011;41919;42.648;23.384;2023-08-24T06:30:36;12.20;;;9.05;;
56051;SDS011;41919;42.648;23.384;2023-08-24T06:33:04;12.80;;;9.73;;
56051;SDS011;41919;42.648;23.384;2023-08-24T06:35:29;11.73;;;9.82;;
56051;SDS011;41919;42.648;23.384;2023-08-24T06:37:55;12.80;;;10.30;;
56051;SDS011;41919;42.648;23.384;2023-08-24T06:40:20;11.13;;;9.73;;
56051;SDS011;41919;42.648;23.384;2023-08-24T06:42:46;14.45;;;11.63;;
56051;SDS011;41919;42.648;23.384;2023-08-24T06:45:11;15.02;;;12.30;;
56051;SDS011;41919;42.648;23.384;2023-08-24T06:47:37;16.05;;;12.18;;
56051;SDS011;41919;42.648;23.384;2023-08-24T06:50:04;16.92;;;11.60;;
56051;SDS011;41919;42.648;23.384;2023-08-24T06:52:30;15.40;;;10.60;;
56051;SDS011;41919;42.648;23.384;2023-08-24T06:54:55;13.82;;;11.57;;
56051;SDS011;41919;42.648;23.384;2023-08-24T06:57:21;13.63;;;11.48;;
56051;SDS011;41919;42.648;23.384;2023-08-24T06:59:47;14.77;;;12.15;;
56051;SDS011;41919;42.648;23.384;2023-08-24T07:02:12;17.25;;;11.27;;
56051;SDS011;41919;42.648;23.384;2023-08-24T07:04:37;15.25;;;11.63;;
56051;SDS011;41919;42.648;23.384;2023-08-24T07:07:05;14.35;;;12.02;;
56051;SDS011;41919;42.648;23.384;2023-08-24T07:09:31;15.75;;;11.65;;
56051;SDS011;41919;42.648;23.384;2023-08-24T07:11:56;15.15;;;11.65;;
56051;SDS011;41919;42.648;23.384;2023-08-24T07:14:21;14.45;;;11.10;;
56051;SDS011;41919;42.648;23.384;2023-08-24T07:16:47;17.20;;;11.93;;
56051;SDS011;41919;42.648;23.384;2023-08-24T07:19:12;15.95;;;11.98;;
56051;SDS011;41919;42.648;23.384;2023-08-24T07:21:38;15.70;;;12.50;;
56051;SDS011;41919;42.648;23.384;2023-08-24T07:24:04;13.05;;;11.73;;
56051;SDS011;41919;42.648;23.384;2023-08-24T07:26:29;14.30;;;11.20;;
56051;SDS011;41919;42.648;23.384;2023-08-24T07:28:55;18.25;;;11.27;;
56051;SDS011;41919;42.648;23.384;2023-08-24T07:31:21;14.00;;;11.10;;
56051;SDS011;41919;42.648;23.384;2023-08-24T07:33:47;13.68;;;10.48;;
56051;SDS011;41919;42.648;23.384;2023-08-24T07:36:13;13.00;;;10.68;;
56051;SDS011;41919;42.648;23.384;2023-08-24T07:38:39;13.75;;;10.25;;
56051;SDS011;41919;42.648;23.384;2023-08-24T07:41:04;11.98;;;10.27;;
56051;SDS011;41919;42.648;23.384;2023-08-24T07:43:31;12.38;;;10.20;;
56051;SDS011;41919;42.648;23.384;2023-08-24T07:45:56;13.63;;;11.45;;
56051;SDS011;41919;42.648;23.384;2023-08-24T07:48:22;13.73;;;10.18;;
56051;SDS011;41919;42.648;23.384;2023-08-24T07:50:47;12.18;;;10.63;;
56051;SDS011;41919;42.648;23.384;2023-08-24T07:53:12;14.15;;;10.55;;
56051;SDS011;41919;42.648;23.384;2023-08-24T07:55:39;11.52;;;10.30;;
56051;SDS011;41919;42.648;23.384;2023-08-24T07:58:04;11.77;;;10.63;;
56051;SDS011;41919;42.648;23.384;2023-08-24T08:00:30;10.68;;;8.75;;
56051;SDS011;41919;42.648;23.384;2023-08-24T08:02:55;11.50;;;10.35;;
56051;SDS011;41919;42.648;23.384;2023-08-24T08:05:21;11.00;;;9.88;;
56051;SDS011;41919;42.648;23.384;2023-08-24T08:07:47;11.85;;;9.77;;
56051;SDS011;41919;42.648;23.384;2023-08-24T08:10:13;16.42;;;10.23;;
56051;SDS011;41919;42.648;23.384;2023-08-24T08:12:40;10.85;;;6.85;;
56051;SDS011;41919;42.648;23.384;2023-08-24T08:15:05;12.07;;;10.23;;
56051;SDS011;41919;42.648;23.384;2023-08-24T08:17:31;13.73;;;10.82;;
56051;SDS011;41919;42.648;23.384;2023-08-24T08:19:58;15.07;;;12.15;;
56051;SDS011;41919;42.648;23.384;2023-08-24T08:22:23;12.57;;;11.18;;
56051;SDS011;41919;42.648;23.384;2023-08-24T08:24:50;14.20;;;12.00;;
56051;SDS011;41919;42.648;23.384;2023-08-24T08:27:15;14.48;;;11.45;;
56051;SDS011;41919;42.648;23.384;2023-08-24T08:29:41;12.95;;;11.52;;
56051;SDS011;41919;42.648;23.384;2023-08-24T08:32:06;16.52;;;11.75;;
56051;SDS011;41919;42.648;23.384;2023-08-24T08:34:32;12.48;;;11.10;;
56051;SDS011;41919;42.648;23.384;2023-08-24T08:36:58;12.73;;;11.50;;
56051;SDS011;41919;42.648;23.384;2023-08-24T08:39:23;11.43;;;10.00;;
56051;SDS011;41919;42.648;23.384;2023-08-24T08:41:49;10.68;;;9.60;;
56051;SDS011;41919;42.648;23.384;2023-08-24T08:44:14;11.68;;;9.75;;
56051;SDS011;41919;42.648;23.384;2023-08-24T08:46:41;14.68;;;10.85;;
56051;SDS011;41919;42.648;23.384;2023-08-24T08:49:08;15.38;;;10.52;;
56051;SDS011;41919;42.648;23.384;2023-08-24T08:51:36;10.82;;;9.73;;
56051;SDS011;41919;42.648;23.384;2023-08-24T08:54:03;11.93;;;10.05;;
56051;SDS011;41919;42.648;23.384;2023-08-24T08:56:30;12.15;;;9.77;;
56051;SDS011;41919;42.648;23.384;2023-08-24T08:58:57;10.43;;;9.43;;
56051;SDS011;41919;42.648;23.384;2023-08-24T09:01:25;11.93;;;9.77;;
56051;SDS011;41919;42.648;23.384;2023-08-24T09:03:51;14.35;;;9.85;;
56051;SDS011;41919;42.648;23.384;2023-08-24T09:06:17;11.50;;;9.90;;
56051;SDS011;41919;42.648;23.384;2023-08-24T09:08:42;16.25;;;10.93;;
56051;SDS011;41919;42.648;23.384;2023-08-24T09:11:09;16.50;;;10.05;;
56051;SDS011;41919;42.648;23.384;2023-08-24T09:13:34;13.57;;;9.63;;
56051;SDS011;41919;42.648;23.384;2023-08-24T09:16:03;10.70;;;9.25;;
56051;SDS011;41919;42.648;23.384;2023-08-24T09:18:35;10.07;;;9.07;;
56051;SDS011;41919;42.648;23.384;2023-08-24T09:21:07;11.73;;;9.43;;
56051;SDS011;41919;42.648;23.384;2023-08-24T09:23:33;13.57;;;9.95;;
56051;SDS011;41919;42.648;23.384;2023-08-24T09:26:01;10.10;;;9.15;;
56051;SDS011;41919;42.648;23.384;2023-08-24T09:28:27;12.98;;;8.63;;
56051;SDS011;41919;42.648;23.384;2023-08-24T09:30:53;10.07;;;9.07;;
56051;SDS011;41919;42.648;23.384;2023-08-24T09:33:21;10.18;;;9.15;;
56051;SDS011;41919;42.648;23.384;2023-08-24T09:35:52;12.63;;;9.73;;
56051;SDS011;41919;42.648;23.384;2023-08-24T09:38:19;13.60;;;10.15;;
56051;SDS011;41919;42.648;23.384;2023-08-24T09:40:47;12.30;;;10.00;;
56051;SDS011;41919;42.648;23.384;2023-08-24T09:43:16;11.57;;;10.38;;
56051;SDS011;41919;42.648;23.384;2023-08-24T09:48:15;12.95;;;10.07;;
56051;SDS011;41919;42.648;23.384;2023-08-24T09:50:42;10.70;;;9.60;;
56051;SDS011;41919;42.648;23.384;2023-08-24T09:53:09;11.30;;;9.65;;
56051;SDS011;41919;42.648;23.384;2023-08-24T09:55:44;11.05;;;8.90;;
56051;SDS011;41919;42.648;23.384;2023-08-24T09:58:21;10.95;;;9.88;;
56051;SDS011;41919;42.648;23.384;2023-08-24T10:00:47;10.45;;;9.52;;
56051;SDS011;41919;42.648;23.384;2023-08-24T10:03:15;10.63;;;9.55;;
56051;SDS011;41919;42.648;23.384;2023-08-24T10:05:45;10.68;;;9.77;;
56051;SDS011;41919;42.648;23.384;2023-08-24T10:08:12;10.85;;;9.77;;
56051;SDS011;41919;42.648;23.384;2023-08-24T10:10:39;12.95;;;10.27;;
56051;SDS011;41919;42.648;23.384;2023-08-24T10:13:08;12.07;;;9.35;;
56051;SDS011;41919;42.648;23.384;2023-08-24T10:15:40;11.25;;;10.10;;
56051;SDS011;41919;42.648;23.384;2023-08-24T10:18:11;11.80;;;9.48;;
56051;SDS011;41919;42.648;23.384;2023-08-24T10:20:39;11.38;;;9.55;;
56051;SDS011;41919;42.648;23.384;2023-08-24T10:23:07;10.00;;;8.82;;
56051;SDS011;41919;42.648;23.384;2023-08-24T10:25:33;9.55;;;8.57;;
56051;SDS011;41919;42.648;23.384;2023-08-24T10:27:59;11.60;;;8.88;;
56051;SDS011;41919;42.648;23.384;2023-08-24T10:30:26;10.52;;;8.70;;
56051;SDS011;41919;42.648;23.384;2023-08-24T10:32:54;10.10;;;9.07;;
56051;SDS011;41919;42.648;23.384;2023-08-24T10:35:21;12.32;;;9.43;;
56051;SDS011;41919;42.648;23.384;2023-08-24T10:37:47;9.38;;;8.48;;
56051;SDS011;41919;42.648;23.384;2023-08-24T10:40:13;10.82;;;9.73;;
56051;SDS011;41919;42.648;23.384;2023-08-24T10:42:45;12.35;;;9.88;;
56051;SDS011;41919;42.648;23.384;2023-08-24T10:45:12;10.93;;;9.90;;
56051;SDS011;41919;42.648;23.384;2023-08-24T10:47:45;10.95;;;9.38;;
56051;SDS011;41919;42.648;23.384;2023-08-24T10:50:11;10.27;;;9.27;;
56051;SDS011;41919;42.648;23.384;2023-08-24T10:52:40;13.45;;;8.98;;
56051;SDS011;41919;42.648;23.384;2023-08-24T10:55:25;9.88;;;8.88;;
56051;SDS011;41919;42.648;23.384;2023-08-24T11:00:27;10.25;;;8.98;;
56051;SDS011;41919;42.648;23.384;2023-08-24T11:02:53;10.80;;;9.73;;
56051;SDS011;41919;42.648;23.384;2023-08-24T11:07:59;10.55;;;9.48;;
56051;SDS011;41919;42.648;23.384;2023-08-24T11:10:31;14.40;;;9.57;;
56051;SDS011;41919;42.648;23.384;2023-08-24T11:18:23;12.82;;;9.88;;
56051;SDS011;41919;42.648;23.384;2023-08-24T11:20:52;11.73;;;10.07;;
56051;SDS011;41919;42.648;23.384;2023-08-24T11:23:19;11.00;;;9.63;;
56051;SDS011;41919;42.648;23.384;2023-08-24T11:25:45;10.85;;;9.35;;
56051;SDS011;41919;42.648;23.384;2023-08-24T11:28:16;15.10;;;9.82;;
56051;SDS011;41919;42.648;23.384;2023-08-24T11:30:43;13.75;;;10.00;;
56051;SDS011;41919;42.648;23.384;2023-08-24T11:33:09;13.90;;;10.55;;
56051;SDS011;41919;42.648;23.384;2023-08-24T11:35:36;10.93;;;9.77;;
56051;SDS011;41919;42.648;23.384;2023-08-24T11:38:02;12.13;;;10.43;;
56051;SDS011;41919;42.648;23.384;2023-08-24T11:40:28;10.80;;;9.65;;
56051;SDS011;41919;42.648;23.384;2023-08-24T11:42:56;14.07;;;10.82;;
56051;SDS011;41919;42.648;23.384;2023-08-24T11:45:22;13.38;;;10.25;;
56051;SDS011;41919;42.648;23.384;2023-08-24T11:47:49;11.27;;;10.13;;
56051;SDS011;41919;42.648;23.384;2023-08-24T11:50:16;11.10;;;9.88;;
56051;SDS011;41919;42.648;23.384;2023-08-24T11:52:42;10.82;;;9.70;;
56051;SDS011;41919;42.648;23.384;2023-08-24T11:55:08;12.65;;;9.43;;
56051;SDS011;41919;42.648;23.384;2023-08-24T11:57:36;13.50;;;10.80;;
56051;SDS011;41919;42.648;23.384;2023-08-24T12:00:03;10.65;;;9.35;;
56051;SDS011;41919;42.648;23.384;2023-08-24T12:02:29;12.75;;;9.70;;
56051;SDS011;41919;42.648;23.384;2023-08-24T12:04:55;12.23;;;9.48;;
56051;SDS011;41919;42.648;23.384;2023-08-24T12:07:21;9.95;;;8.93;;
56051;SDS011;41919;42.648;23.384;2023-08-24T12:09:46;11.38;;;9.48;;
56051;SDS011;41919;42.648;23.384;2023-08-24T12:12:16;12.07;;;9.50;;
56051;SDS011;41919;42.648;23.384;2023-08-24T12:14:42;10.57;;;9.48;;
56051;SDS011;41919;42.648;23.384;2023-08-24T12:17:09;10.60;;;9.00;;
56051;SDS011;41919;42.648;23.384;2023-08-24T12:19:35;11.40;;;8.70;;
56051;SDS011;41919;42.648;23.384;2023-08-24T12:22:00;10.10;;;8.48;;
56051;SDS011;41919;42.648;23.384;2023-08-24T12:24:26;9.68;;;7.75;;
56051;SDS011;41919;42.648;23.384;2023-08-24T12:26:57;10.50;;;8.85;;
56051;SDS011;41919;42.648;23.384;2023-08-24T12:29:24;11.20;;;9.13;;
56051;SDS011;41919;42.648;23.384;2023-08-24T12:31:50;10.25;;;9.23;;
56051;SDS011;41919;42.648;23.384;2023-08-24T12:34:15;11.02;;;9.88;;
56051;SDS011;41919;42.648;23.384;2023-08-24T12:36:41;14.75;;;10.75;;
56051;SDS011;41919;42.648;23.384;2023-08-24T12:39:10;10.90;;;9.88;;
56051;SDS011;41919;42.648;23.384;2023-08-24T12:41:38;10.68;;;9.75;;
56051;SDS011;41919;42.648;23.384;2023-08-24T12:44:03;9.27;;;8.38;;
56051;SDS011;41919;42.648;23.384;2023-08-24T12:46:33;12.25;;;9.40;;
56051;SDS011;41919;42.648;23.384;2023-08-24T12:49:00;11.02;;;8.82;;
56051;SDS011;41919;42.648;23.384;2023-08-24T12:51:26;9.25;;;8.40;;
56051;SDS011;41919;42.648;23.384;2023-08-24T12:53:51;9.88;;;8.88;;
56051;SDS011;41919;42.648;23.384;2023-08-24T12:56:16;10.55;;;9.40;;
56051;SDS011;41919;42.648;23.384;2023-08-24T12:58:42;10.48;;;9.05;;
56051;SDS011;41919;42.648;23.384;2023-08-24T13:01:07;9.82;;;8.93;;
56051;SDS011;41919;42.648;23.384;2023-08-24T13:03:32;9.98;;;8.52;;
56051;SDS011;41919;42.648;23.384;2023-08-24T13:05:58;9.77;;;8.18;;
56051;SDS011;41919;42.648;23.384;2023-08-24T13:08:24;8.70;;;7.80;;
56051;SDS011;41919;42.648;23.384;2023-08-24T13:10:50;10.35;;;8.43;;
56051;SDS011;41919;42.648;23.384;2023-08-24T13:13:17;9.60;;;8.70;;
56051;SDS011;41919;42.648;23.384;2023-08-24T13:15:42;9.57;;;8.60;;
56051;SDS011;41919;42.648;23.384;2023-08-24T13:18:07;11.50;;;8.85;;
56051;SDS011;41919;42.648;23.384;2023-08-24T13:20:33;9.45;;;8.48;;
56051;SDS011;41919;42.648;23.384;2023-08-24T13:22:58;8.70;;;7.70;;
56051;SDS011;41919;42.648;23.384;2023-08-24T13:25:24;9.80;;;8.82;;
56051;SDS011;41919;42.648;23.384;2023-08-24T13:27:49;10.95;;;9.18;;
56051;SDS011;41919;42.648;23.384;2023-08-24T13:30:14;12.05;;;9.65;;
56051;SDS011;41919;42.648;23.384;2023-08-24T13:32:40;15.60;;;10.65;;
56051;SDS011;41919;42.648;23.384;2023-08-24T13:35:05;11.48;;;10.38;;
56051;SDS011;41919;42.648;23.384;2023-08-24T13:37:31;11.35;;;9.32;;
56051;SDS011;41919;42.648;23.384;2023-08-24T13:39:59;12.25;;;10.35;;
56051;SDS011;41919;42.648;23.384;2023-08-24T13:42:25;10.63;;;8.82;;
56051;SDS011;41919;42.648;23.384;2023-08-24T13:44:50;11.20;;;9.68;;
56051;SDS011;41919;42.648;23.384;2023-08-24T13:47:15;10.30;;;9.30;;
56051;SDS011;41919;42.648;23.384;2023-08-24T13:49:41;11.25;;;9.02;;
56051;SDS011;41919;42.648;23.384;2023-08-24T13:52:07;10.50;;;9.50;;
56051;SDS011;41919;42.648;23.384;2023-08-24T13:54:33;10.68;;;9.02;;
56051;SDS011;41919;42.648;23.384;2023-08-24T13:56:59;11.38;;;9.20;;
56051;SDS011;41919;42.648;23.384;2023-08-24T13:59:26;11.65;;;9.00;;
56051;SDS011;41919;42.648;23.384;2023-08-24T14:01:52;12.45;;;9.40;;
56051;SDS011;41919;42.648;23.384;2023-08-24T14:04:17;12.88;;;9.27;;
56051;SDS011;41919;42.648;23.384;2023-08-24T14:06:42;13.05;;;10.70;;
56051;SDS011;41919;42.648;23.384;2023-08-24T14:09:08;12.48;;;9.60;;
56051;SDS011;41919;42.648;23.384;2023-08-24T14:11:33;11.50;;;10.18;;
56051;SDS011;41919;42.648;23.384;2023-08-24T14:13:59;12.00;;;9.70;;
56051;SDS011;41919;42.648;23.384;2023-08-24T14:16:24;9.85;;;8.80;;
56051;SDS011;41919;42.648;23.384;2023-08-24T14:18:51;11.98;;;10.07;;
56051;SDS011;41919;42.648;23.384;2023-08-24T14:21:17;8.90;;;8.00;;
56051;SDS011;41919;42.648;23.384;2023-08-24T14:23:42;10.77;;;9.60;;
56051;SDS011;41919;42.648;23.384;2023-08-24T14:26:09;11.48;;;10.27;;
56051;SDS011;41919;42.648;23.384;2023-08-24T14:28:48;11.13;;;9.75;;
56051;SDS011;41919;42.648;23.384;2023-08-24T14:31:18;11.68;;;9.15;;
56051;SDS011;41919;42.648;23.384;2023-08-24T14:33:43;10.25;;;9.18;;
56051;SDS011;41919;42.648;23.384;2023-08-24T14:36:09;11.70;;;9.85;;
56051;SDS011;41919;42.648;23.384;2023-08-24T14:38:37;10.05;;;8.38;;
56051;SDS011;41919;42.648;23.384;2023-08-24T14:41:04;10.73;;;9.63;;
56051;SDS011;41919;42.648;23.384;2023-08-24T14:43:30;14.18;;;11.07;;